Anchorage, AK

11:20 PM AKDT on September 03, 2015 (GMT -0800)
Chugiak Loft | | Change Station
CLOSE
Current Station
Personal Weather Station
Location: Anchorage, AK
Elevation: 272 ft
Nearby Weather Stations

Elev 272 ft 61.39 °N, 149.51 °W | Updated 7 minutes ago

Light Rain
Light Rain
46.1 °F
Feels Like 46 °F
N
0.0
Wind Variable Wind from South
Gusts 0.0 mph

Today
High -- | Low -- °F
--% Chance of Precip.
Yesterday
High -- | Low -- °F
Precip. -- in
6:54 AM 8:59 PM
Waning Gibbous, 62% visible
Pressure 29.87 in
Visibility 10.0 miles
Clouds Overcast 8000 ft
Windchill 46 °F
Dew Point 45 °F
Humidity 96%
Rainfall 0.20 in
Snow Depth Not available.
UV 0 out of 12
Pollen Not available.
Air Quality Not available.
Flu Activity Not available.
METAR PABV 040706Z AUTO 20003KT 10SM -RA OVC080 10/09 A2985 RMK AO2 SLP115 P0002 T01000089
Pressure 29.87 in
Visibility 10.0 miles
Clouds Overcast 8000 ft
Windchill 46 °F
Dew Point 45 °F
Humidity 96%
Rainfall 0.20 in
Snow Depth Not available.
UV 0 out of 12
Pollen Not available.
Air Quality Not available.
Flu Activity Not available.
METAR PABV 040706Z AUTO 20003KT 10SM -RA OVC080 10/09 A2985 RMK AO2 SLP115 P0002 T01000089

10-Day Weather Forecast

×

Almanac

Astronomy

Sep. 03, 2015 Rise Set
Actual Time
Civil Twilight
Nautical Twilight
Astronomical Twilight
Moon
Length of Visible Light
Length of Day
Tomorrow will be .
, % of the Moon is Illuminated

Today's Extremes

State Highs State Lows

Community

WunderPhotos

Upload Photos

1,852,132 photos uploaded!

WunderBlogs® & News

Nearby

Air Quality

  Air Quality AQ Index Pollutant
Not available.

Snow Depth

Station Depth Elevation

Earthquake Activity

City Distance Mag. Time & Date
Minimum magnitude displayed is 2.5.

Coastal Water Temperatures

Place Temperature

Stations

Nearby Weather Stations

Station Location Temp. Windchill Dew Point Humidity Wind Precip. Elev Updated Type